createdAt,value
2018-11-22T12:16:00.436Z,71.85
2018-11-22T12:19:05.234Z,71.61
2018-11-22T12:22:09.783Z,71.80
2018-11-22T12:25:18.806Z,71.52
2018-11-22T12:28:23.357Z,71.72
2018-11-22T12:31:27.948Z,71.58
2018-11-22T12:35:36.234Z,72.13
2018-11-22T12:38:40.822Z,71.87
2018-11-22T12:41:45.477Z,72.01
2018-11-22T12:44:50.166Z,72.24
2018-11-22T12:47:54.852Z,72.31
2018-11-22T12:50:59.631Z,72.64
2018-11-22T12:54:04.172Z,72.58
2018-11-22T12:57:08.733Z,71.81
2018-11-22T13:00:15.833Z,72.14
2018-11-22T13:03:20.439Z,72.25
2018-11-22T13:06:25.096Z,72.08
2018-11-22T13:09:29.663Z,72.38
2018-11-22T13:12:34.315Z,72.04
2018-11-22T13:15:38.943Z,72.23
2018-11-22T13:18:43.779Z,71.53
2018-11-22T13:21:48.416Z,72.04
2018-11-22T13:24:52.996Z,71.30
2018-11-22T13:27:57.601Z,70.88
2018-11-22T13:31:02.476Z,70.74
2018-11-22T13:34:07.279Z,71.45
2018-11-22T13:37:11.997Z,71.59
2018-11-22T13:40:16.730Z,72.36
2018-11-22T13:43:21.344Z,72.62
2018-11-22T13:46:26.226Z,72.20
2018-11-22T13:49:30.828Z,71.57
2018-11-22T13:52:37.267Z,71.53
2018-11-22T13:55:40.045Z,71.80
2018-11-22T13:58:44.871Z,70.94
2018-11-22T14:01:49.436Z,70.98
2018-11-22T14:04:54.077Z,71.68
2018-11-22T14:07:58.775Z,72.07
2018-11-22T14:11:03.421Z,71.43
2018-11-22T14:14:08.090Z,72.31
2018-11-22T14:17:12.923Z,72.25
2018-11-22T14:20:21.761Z,71.72
2018-11-22T14:23:26.376Z,71.60
2018-11-22T14:26:30.979Z,71.33
2018-11-22T14:29:35.828Z,71.10
2018-11-22T14:32:42.006Z,71.92
2018-11-22T14:35:46.771Z,71.63
2018-11-22T14:38:51.423Z,71.16
2018-11-22T14:41:55.975Z,71.42
2018-11-22T14:45:00.698Z,72.17
2018-11-22T14:48:05.690Z,72.71
2018-11-22T14:51:22.721Z,71.97
2018-11-22T14:54:27.266Z,72.54
2018-11-22T14:57:31.915Z,73.04
2018-11-22T15:00:36.640Z,72.69
2018-11-22T15:03:41.135Z,72.95
2018-11-22T15:06:45.864Z,72.56
2018-11-22T15:09:50.633Z,72.42
2018-11-22T15:12:55.305Z,73.17
2018-11-22T15:16:00.076Z,73.25
2018-11-22T15:19:04.625Z,73.30
2018-11-22T15:22:09.317Z,73.43
2018-11-22T15:25:16.585Z,73.67
2018-11-22T15:28:21.260Z,73.67
2018-11-22T15:31:25.899Z,73.77
2018-11-22T15:34:30.804Z,74.50
2018-11-22T15:37:35.653Z,74.60
2018-11-22T15:40:40.192Z,74.86
2018-11-22T15:43:44.688Z,75.02
2018-11-22T15:46:52.341Z,74.73
2018-11-22T15:49:56.931Z,75.66
2018-11-22T15:53:01.513Z,75.86
2018-11-22T15:56:06.247Z,76.32
2018-11-22T15:59:10.809Z,76.80
2018-11-22T16:02:15.690Z,77.70
2018-11-22T16:05:20.973Z,78.70
2018-11-22T16:08:25.549Z,79.18
2018-11-22T16:11:30.304Z,79.09
2018-11-22T16:14:34.879Z,79.92
2018-11-22T16:17:40.078Z,80.73
2018-11-22T16:20:44.864Z,81.94
2018-11-22T16:23:49.515Z,82.32
2018-11-22T16:26:54.145Z,83.01
2018-11-22T16:30:12.077Z,83.77
2018-11-22T16:33:22.748Z,84.25
2018-11-22T16:36:27.432Z,85.17
2018-11-22T16:39:32.078Z,85.69
2018-11-22T16:42:36.735Z,85.26
2018-11-22T16:45:41.251Z,85.01
2018-11-22T16:48:45.904Z,85.41
2018-11-22T16:51:50.477Z,86.47
2018-11-22T16:54:54.975Z,86.90
2018-11-22T16:58:00.809Z,87.81
2018-11-22T17:01:05.571Z,87.87
2018-11-22T17:04:10.311Z,88.22
2018-11-22T17:07:14.929Z,88.15
2018-11-22T17:10:20.903Z,88.93
2018-11-22T17:13:25.485Z,89.40
2018-11-22T17:16:30.103Z,89.96
2018-11-22T17:19:34.737Z,90.48
2018-11-22T17:22:39.867Z,90.80
2018-11-22T17:25:44.383Z,90.80
2018-11-22T17:28:48.965Z,91.11
2018-11-22T17:31:53.619Z,91.44
2018-11-22T17:34:58.057Z,91.67
2018-11-22T17:38:04.092Z,92.37
2018-11-22T17:41:08.760Z,92.13
2018-11-22T17:44:13.323Z,91.19
2018-11-22T17:47:18.145Z,90.60
2018-11-22T17:50:25.336Z,91.77
2018-11-22T17:53:29.953Z,92.11
2018-11-22T17:56:34.540Z,92.50
2018-11-22T17:59:39.302Z,92.93
2018-11-22T18:02:44.864Z,93.00
2018-11-22T18:05:50.164Z,92.65
2018-11-22T18:08:54.730Z,92.54
2018-11-22T18:11:59.324Z,92.77
2018-11-22T18:15:03.975Z,92.99
2018-11-22T18:18:08.635Z,92.89
2018-11-22T18:21:13.203Z,92.53
2018-11-22T18:24:17.905Z,93.02
2018-11-22T18:27:22.434Z,93.31
2018-11-22T18:30:28.573Z,93.45
2018-11-22T18:33:33.197Z,92.98
2018-11-22T18:36:44.265Z,93.45
2018-11-22T18:39:48.865Z,94.21
2018-11-22T18:42:54.603Z,93.90
2018-11-22T18:45:59.209Z,94.54
2018-11-22T18:49:03.907Z,94.43
2018-11-22T18:52:08.555Z,94.53
2018-11-22T18:55:13.306Z,95.34
2018-11-22T18:58:17.868Z,95.27
2018-11-22T19:01:22.414Z,95.54
2018-11-22T19:04:27.084Z,95.07
2018-11-22T19:07:32.146Z,95.62
2018-11-22T19:10:38.226Z,95.33
2018-11-22T19:13:42.838Z,94.97
2018-11-22T19:16:47.468Z,95.24
2018-11-22T19:19:52.066Z,95.96
2018-11-22T19:22:57.284Z,95.76
2018-11-22T19:26:02.000Z,95.77
2018-11-22T19:29:06.727Z,95.84
2018-11-22T19:32:11.316Z,95.45
2018-11-22T19:35:17.213Z,95.93
2018-11-22T19:38:21.924Z,96.33
2018-11-22T19:41:26.457Z,96.46
2018-11-22T19:44:31.676Z,96.12
2018-11-22T19:47:36.330Z,96.30
2018-11-22T19:50:40.919Z,96.06
2018-11-22T19:53:45.592Z,95.82
2018-11-22T19:56:50.285Z,96.79
2018-11-22T19:59:54.935Z,97.07
2018-11-22T20:03:01.016Z,97.00
2018-11-22T20:06:06.318Z,96.92
2018-11-22T20:09:12.166Z,97.28
2018-11-22T20:12:16.841Z,97.67
2018-11-22T20:15:21.776Z,97.46
2018-11-22T20:18:26.495Z,97.16
2018-11-22T20:21:31.383Z,97.21
2018-11-22T20:24:36.079Z,97.93
2018-11-22T20:27:41.198Z,97.06
2018-11-22T20:30:48.058Z,97.30
2018-11-22T20:33:52.932Z,97.30
2018-11-22T20:36:57.561Z,97.07
2018-11-22T20:40:02.221Z,97.25
2018-11-22T20:43:07.204Z,97.71
2018-11-22T20:46:12.706Z,97.98
2018-11-22T20:49:17.409Z,97.74
2018-11-22T20:52:22.239Z,97.73
2018-11-22T20:55:28.549Z,98.19
2018-11-22T20:58:33.217Z,98.24
2018-11-22T21:01:38.073Z,97.46
2018-11-22T21:04:42.737Z,97.60
2018-11-22T21:07:47.557Z,97.82
2018-11-22T21:10:52.384Z,98.01
2018-11-22T21:13:57.073Z,98.03
2018-11-22T21:17:02.132Z,98.02
2018-11-22T21:20:08.685Z,98.16
2018-11-22T21:23:13.267Z,98.34
2018-11-22T21:26:17.953Z,98.33
2018-11-22T21:29:22.564Z,98.38
2018-11-22T21:32:27.176Z,98.65
2018-11-22T21:35:32.278Z,97.83
2018-11-22T21:38:36.944Z,97.45
2018-11-22T21:41:41.904Z,97.81
2018-11-22T21:44:46.502Z,97.93
2018-11-22T21:47:51.278Z,98.29
2018-11-22T21:50:55.929Z,98.18
2018-11-22T21:54:01.052Z,98.16
2018-11-22T21:57:05.770Z,98.58
2018-11-22T22:00:23.184Z,98.62
2018-11-22T22:03:27.731Z,98.42
2018-11-22T22:06:32.340Z,98.87
2018-11-22T22:09:37.090Z,98.69
2018-11-22T22:12:42.586Z,98.81
2018-11-22T22:15:47.260Z,98.61
2018-11-22T22:18:51.848Z,98.87
2018-11-22T22:21:56.424Z,98.85
2018-11-22T22:25:00.937Z,99.07
2018-11-22T22:28:05.667Z,98.99
2018-11-22T22:31:10.318Z,98.63
2018-11-22T22:34:14.921Z,99.30
2018-11-22T22:37:19.481Z,98.63
2018-11-22T22:40:26.577Z,98.56
2018-11-22T22:43:31.144Z,98.92
2018-11-22T22:46:35.715Z,98.82
2018-11-22T22:49:40.335Z,98.74
2018-11-22T22:52:45.283Z,98.78
2018-11-22T22:55:50.011Z,98.74
2018-11-22T22:58:55.342Z,98.75
2018-11-22T23:01:59.996Z,99.11
2018-11-22T23:05:04.845Z,98.61
2018-11-22T23:08:09.448Z,98.72
2018-11-22T23:11:14.183Z,98.84
2018-11-22T23:14:18.751Z,99.04
2018-11-22T23:17:23.408Z,98.61
2018-11-22T23:20:30.173Z,98.87
2018-11-22T23:23:34.741Z,99.03
2018-11-22T23:26:39.276Z,99.09
2018-11-22T23:29:43.912Z,99.33
2018-11-22T23:32:52.510Z,98.94
2018-11-22T23:35:57.239Z,99.01
2018-11-22T23:39:01.872Z,99.10
2018-11-22T23:42:07.020Z,99.23
2018-11-22T23:45:12.856Z,99.11
2018-11-22T23:48:17.606Z,99.29
2018-11-22T23:51:22.149Z,99.41
2018-11-22T23:54:26.824Z,99.22
2018-11-22T23:57:31.491Z,99.57
